createdAt,value
2019-02-16T00:04:14.953Z,6.40
2019-02-16T00:09:21.458Z,7.97
2019-02-16T00:14:26.755Z,6.77
2019-02-16T00:19:33.504Z,7.13
2019-02-16T00:24:41.341Z,6.50
2019-02-16T00:29:48.825Z,6.80
2019-02-16T00:34:54.779Z,6.57
2019-02-16T00:40:00.585Z,5.30
2019-02-16T00:45:07.878Z,6.40
2019-02-16T00:50:14.855Z,6.10
2019-02-16T00:55:23.435Z,6.77
2019-02-16T01:00:29.236Z,6.10
2019-02-16T01:05:36.372Z,7.83
2019-02-16T01:10:42.936Z,6.30
2019-02-16T01:15:49.792Z,6.17
2019-02-16T01:20:58.343Z,5.77
2019-02-16T01:26:04.752Z,6.17
2019-02-16T01:31:12.003Z,6.60
2019-02-16T01:36:18.620Z,5.57
2019-02-16T01:41:25.628Z,7.57
2019-02-16T01:46:31.802Z,5.87
2019-02-16T01:51:38.205Z,6.60
2019-02-16T01:56:44.249Z,5.40
2019-02-16T02:01:50.017Z,5.97
2019-02-16T02:06:57.681Z,5.97
2019-02-16T02:12:05.794Z,6.40
2019-02-16T02:17:12.802Z,7.80
2019-02-16T02:22:19.034Z,5.57
2019-02-16T02:27:25.716Z,8.30
2019-02-16T02:32:32.192Z,5.53
2019-02-16T02:37:39.690Z,6.00
2019-02-16T02:42:47.354Z,5.57
2019-02-16T02:47:55.491Z,6.60
2019-02-16T02:53:00.912Z,5.93
2019-02-16T02:58:09.342Z,7.27
2019-02-16T03:03:15.657Z,6.03
2019-02-16T03:08:23.196Z,6.87
2019-02-16T03:13:28.623Z,7.20
2019-02-16T03:18:37.285Z,6.93
2019-02-16T03:23:45.715Z,7.30
2019-02-16T03:29:13.209Z,7.40
2019-02-16T03:34:22.700Z,6.77
2019-02-16T03:39:36.578Z,7.53
2019-02-16T03:44:44.078Z,6.83
2019-02-16T03:49:50.875Z,6.73
2019-02-16T03:54:58.075Z,6.27
2019-02-16T04:00:04.165Z,6.50
2019-02-16T04:05:10.946Z,6.53
2019-02-16T04:10:17.598Z,8.30
2019-02-16T04:15:24.096Z,6.07
2019-02-16T04:20:31.660Z,7.67
2019-02-16T04:25:41.860Z,7.10
2019-02-16T04:30:49.502Z,8.07
2019-02-16T04:35:56.195Z,5.20
2019-02-16T04:41:04.145Z,5.43
2019-02-16T04:46:09.442Z,6.70
2019-02-16T04:51:14.988Z,6.57
2019-02-16T04:56:22.105Z,6.00
2019-02-16T05:01:28.141Z,6.73
2019-02-16T05:06:34.196Z,5.60
2019-02-16T05:11:40.725Z,6.50
2019-02-16T05:16:46.430Z,4.80
2019-02-16T05:21:52.780Z,5.13
2019-02-16T05:26:58.580Z,7.33
2019-02-16T05:32:05.133Z,5.00
2019-02-16T05:37:12.202Z,7.20
2019-02-16T05:42:18.298Z,5.80
2019-02-16T05:47:24.190Z,6.13
2019-02-16T05:52:31.098Z,5.90
2019-02-16T05:57:38.580Z,6.87
2019-02-16T06:02:45.562Z,5.17
2019-02-16T06:07:53.294Z,7.93
2019-02-16T06:13:00.727Z,6.30
2019-02-16T06:18:06.507Z,8.17
2019-02-16T06:23:12.686Z,6.13
2019-02-16T06:28:19.065Z,6.47
2019-02-16T06:33:26.434Z,8.67
2019-02-16T06:38:33.811Z,7.77
2019-02-16T06:43:39.194Z,5.20
2019-02-16T06:48:46.105Z,3.97
2019-02-16T06:53:51.882Z,8.80
2019-02-16T06:58:57.864Z,5.93
2019-02-16T07:04:04.042Z,6.70
2019-02-16T07:09:10.594Z,5.57
2019-02-16T07:14:20.082Z,4.70
2019-02-16T07:19:29.124Z,5.67
2019-02-16T07:24:36.399Z,6.17
2019-02-16T07:29:41.917Z,6.27
2019-02-16T07:34:48.586Z,8.13
2019-02-16T07:39:55.882Z,8.30
2019-02-16T07:45:18.585Z,8.27
2019-02-16T07:50:42.037Z,9.73
2019-02-16T07:56:00.087Z,8.57
2019-02-16T08:01:40.525Z,8.10
2019-02-16T08:07:13.340Z,8.80
2019-02-16T08:12:38.803Z,10.63
2019-02-16T08:18:01.510Z,12.23
2019-02-16T08:23:25.306Z,7.60
2019-02-16T08:28:45.832Z,7.80
2019-02-16T08:34:27.282Z,7.17
2019-02-16T08:40:04.846Z,8.70
2019-02-16T08:45:26.563Z,7.83
2019-02-16T08:50:40.494Z,8.27
2019-02-16T08:56:06.082Z,7.60
2019-02-16T09:01:35.724Z,7.37
2019-02-16T09:07:12.413Z,7.67
2019-02-16T09:12:25.301Z,7.43
2019-02-16T09:17:48.951Z,7.47
2019-02-16T09:23:11.435Z,8.77
2019-02-16T09:28:34.954Z,6.13
2019-02-16T09:34:01.025Z,7.53
2019-02-16T09:39:24.578Z,7.10
2019-02-16T09:44:38.449Z,9.13
2019-02-16T09:55:58.856Z,7.90
2019-02-16T10:01:33.430Z,10.83
2019-02-16T10:07:13.760Z,9.63
2019-02-16T10:12:38.139Z,9.07
2019-02-16T10:18:03.242Z,12.20
2019-02-16T10:23:22.061Z,11.40
2019-02-16T10:28:49.496Z,10.37
2019-02-16T10:34:07.910Z,12.27
2019-02-16T10:39:25.193Z,12.00
2019-02-16T10:44:43.105Z,12.13
2019-02-16T10:50:13.713Z,12.33
2019-02-16T10:55:52.268Z,14.30
2019-02-16T11:01:25.465Z,16.37
2019-02-16T11:06:42.729Z,15.33
2019-02-16T11:11:59.503Z,14.87
2019-02-16T11:17:22.753Z,14.57
2019-02-16T11:22:50.049Z,14.90
2019-02-16T11:28:26.660Z,14.67
2019-02-16T11:33:54.957Z,14.63
2019-02-16T11:39:10.775Z,16.27
2019-02-16T11:44:34.521Z,16.10
2019-02-16T11:49:52.685Z,14.43
2019-02-16T11:55:36.756Z,13.83
2019-02-16T12:00:50.977Z,15.10
2019-02-16T12:06:26.290Z,16.03
2019-02-16T12:11:51.394Z,12.80
2019-02-16T12:17:26.227Z,13.33
2019-02-16T12:22:50.999Z,15.53
2019-02-16T12:28:35.473Z,13.53
2019-02-16T12:34:00.369Z,14.03
2019-02-16T12:39:26.406Z,13.80
2019-02-16T12:44:50.971Z,15.77
2019-02-16T12:50:18.985Z,18.50
2019-02-16T12:55:45.354Z,14.23
2019-02-16T13:01:16.535Z,13.10
2019-02-16T13:06:35.565Z,15.77
2019-02-16T13:12:13.276Z,14.33
2019-02-16T13:17:37.467Z,11.93
2019-02-16T13:22:54.633Z,11.47
2019-02-16T13:28:25.757Z,12.30
2019-02-16T13:33:42.843Z,14.40
2019-02-16T13:39:06.402Z,13.30
2019-02-16T13:44:30.637Z,13.17
2019-02-16T13:49:53.369Z,14.50
2019-02-16T13:55:06.934Z,15.40
2019-02-16T14:00:43.657Z,12.97
2019-02-16T14:06:03.125Z,14.00
2019-02-16T14:11:18.601Z,14.07
2019-02-16T14:16:43.050Z,15.27
2019-02-16T14:21:48.715Z,13.57
2019-02-16T14:26:54.347Z,15.20
2019-02-16T14:32:03.092Z,15.90
2019-02-16T14:37:26.027Z,15.67
2019-02-16T14:42:32.941Z,13.97
2019-02-16T14:47:38.406Z,15.77
2019-02-16T14:52:44.066Z,17.47
2019-02-16T14:57:50.330Z,15.63
2019-02-16T15:02:56.336Z,16.73
2019-02-16T15:08:02.508Z,16.23
2019-02-16T15:13:08.850Z,20.10
2019-02-16T15:18:15.644Z,20.30
2019-02-16T15:23:20.685Z,17.23
2019-02-16T15:28:26.742Z,17.53
2019-02-16T15:33:32.303Z,16.77
2019-02-16T15:38:38.638Z,17.63
2019-02-16T15:43:45.541Z,16.80
2019-02-16T15:48:52.485Z,16.83
2019-02-16T15:53:59.883Z,18.30
2019-02-16T15:59:05.342Z,18.00
2019-02-16T16:04:11.134Z,17.13
2019-02-16T16:09:37.000Z,19.40
2019-02-16T16:15:07.981Z,21.13
2019-02-16T16:20:35.846Z,18.77
2019-02-16T16:25:59.199Z,18.20
2019-02-16T16:31:21.907Z,19.63
2019-02-16T16:36:49.881Z,18.77
2019-02-16T16:42:14.238Z,17.87
2019-02-16T16:47:40.317Z,17.53
2019-02-16T16:52:56.833Z,15.73
2019-02-16T16:58:09.436Z,14.73
2019-02-16T17:03:33.365Z,14.23
2019-02-16T17:08:57.461Z,14.30
2019-02-16T17:14:14.157Z,12.73
2019-02-16T17:19:45.283Z,13.20
2019-02-16T17:25:13.657Z,17.53
2019-02-16T17:30:36.747Z,15.53
2019-02-16T17:35:47.180Z,15.40
2019-02-16T17:41:13.928Z,16.17
2019-02-16T17:46:39.727Z,18.10
2019-02-16T17:52:04.306Z,16.27
2019-02-16T17:57:28.410Z,13.40
2019-02-16T18:02:54.330Z,16.63
2019-02-16T18:08:34.619Z,15.53
2019-02-16T18:14:03.362Z,16.60
2019-02-16T18:19:36.916Z,16.37
2019-02-16T18:25:00.913Z,16.03
2019-02-16T18:30:31.593Z,14.20
2019-02-16T18:35:59.149Z,13.73
2019-02-16T18:41:30.548Z,18.00
2019-02-16T18:46:53.275Z,20.80
2019-02-16T18:52:17.629Z,14.20
2019-02-16T18:57:43.357Z,15.37
2019-02-16T19:03:08.140Z,14.53
2019-02-16T19:08:36.994Z,16.47
2019-02-16T19:14:11.003Z,19.33
2019-02-16T19:19:33.840Z,19.83
2019-02-16T19:24:47.172Z,22.63
2019-02-16T19:30:20.634Z,17.53
2019-02-16T19:35:48.153Z,21.23
2019-02-16T19:41:12.672Z,18.47
2019-02-16T19:46:28.562Z,20.53
2019-02-16T19:51:56.867Z,20.00
2019-02-16T19:57:26.831Z,20.60
2019-02-16T20:02:48.836Z,15.87
2019-02-16T20:08:16.595Z,20.03
2019-02-16T20:13:39.794Z,20.87
2019-02-16T20:19:07.849Z,19.47
2019-02-16T20:24:31.731Z,20.07
2019-02-16T20:29:56.295Z,22.13
2019-02-16T20:35:23.761Z,23.03
2019-02-16T20:40:40.233Z,19.73
2019-02-16T20:46:04.609Z,25.40
2019-02-16T20:51:31.836Z,19.37
2019-02-16T20:56:48.046Z,20.10
2019-02-16T21:02:33.008Z,24.30
2019-02-16T21:07:47.264Z,20.57
2019-02-16T21:12:58.350Z,21.00
2019-02-16T21:18:15.279Z,21.07
2019-02-16T21:23:43.882Z,19.33
2019-02-16T21:29:08.401Z,21.30
2019-02-16T21:34:24.508Z,20.77
2019-02-16T21:39:42.000Z,19.83
2019-02-16T21:44:55.989Z,21.23
2019-02-16T21:50:24.109Z,21.37
2019-02-16T21:55:40.285Z,20.83
2019-02-16T22:01:04.185Z,23.07
2019-02-16T22:06:35.515Z,22.97
2019-02-16T22:11:58.485Z,26.80
2019-02-16T22:17:04.794Z,31.17
2019-02-16T22:22:10.779Z,25.27
2019-02-16T22:27:16.328Z,23.93
2019-02-16T22:32:23.061Z,22.80
2019-02-16T22:37:29.480Z,20.93
2019-02-16T22:42:36.060Z,24.77
2019-02-16T22:47:43.088Z,27.40
2019-02-16T22:52:49.474Z,26.63
2019-02-16T22:57:56.140Z,24.90
2019-02-16T23:03:03.700Z,23.67
2019-02-16T23:08:09.722Z,21.80
2019-02-16T23:13:15.469Z,23.33
2019-02-16T23:18:21.285Z,25.53
2019-02-16T23:23:28.503Z,26.47
2019-02-16T23:28:38.789Z,22.00
2019-02-16T23:33:42.768Z,26.97
2019-02-16T23:38:49.741Z,21.43
2019-02-16T23:43:57.237Z,25.70
2019-02-16T23:49:04.546Z,23.63
2019-02-16T23:54:11.414Z,22.13
2019-02-16T23:59:18.751Z,22.43
